createdAt,value
2023-04-08T00:00:30.944Z,28.42
2023-04-08T00:02:32.719Z,25.65
2023-04-08T00:04:34.452Z,25.95
2023-04-08T00:06:37.108Z,24.75
2023-04-08T00:08:38.563Z,26.45
2023-04-08T00:10:40.024Z,29.67
2023-04-08T00:12:41.498Z,28.63
2023-04-08T00:14:42.938Z,28.38
2023-04-08T00:16:44.488Z,26.77
2023-04-08T00:18:45.971Z,31.50
2023-04-08T00:20:47.431Z,25.63
2023-04-08T00:22:48.828Z,29.08
2023-04-08T00:24:50.620Z,24.40
2023-04-08T00:26:52.170Z,27.02
2023-04-08T00:28:53.825Z,27.42
2023-04-08T00:30:55.697Z,26.45
2023-04-08T00:32:57.544Z,24.05
2023-04-08T00:34:59.044Z,26.55
2023-04-08T00:37:01.241Z,27.65
2023-04-08T00:39:04.259Z,21.83
2023-04-08T00:41:05.704Z,22.90
2023-04-08T00:43:07.176Z,22.73
2023-04-08T00:45:08.919Z,22.58
2023-04-08T00:47:13.425Z,21.73
2023-04-08T00:49:14.907Z,22.75
2023-04-08T00:51:16.520Z,24.60
2023-04-08T00:53:19.167Z,21.80
2023-04-08T00:55:20.647Z,23.30
2023-04-08T00:57:22.133Z,23.73
2023-04-08T00:59:23.561Z,26.52
2023-04-08T01:01:28.776Z,23.98
2023-04-08T01:03:33.306Z,25.02
2023-04-08T01:05:51.546Z,28.42
2023-04-08T01:07:53.026Z,23.88
2023-04-08T01:09:56.951Z,27.70
2023-04-08T01:12:00.468Z,26.48
2023-04-08T01:14:05.806Z,23.90
2023-04-08T01:16:09.658Z,26.67
2023-04-08T01:18:12.621Z,31.75
2023-04-08T01:20:15.105Z,26.88
2023-04-08T01:22:29.836Z,27.27
2023-04-08T01:24:33.579Z,26.13
2023-04-08T01:26:35.713Z,28.00
2023-04-08T01:28:37.701Z,27.25
2023-04-08T01:30:39.715Z,27.50
2023-04-08T01:32:42.777Z,28.65
2023-04-08T01:34:44.338Z,26.10
2023-04-08T01:36:46.838Z,28.23
2023-04-08T01:38:49.368Z,28.67
2023-04-08T01:40:51.501Z,24.23
2023-04-08T01:42:56.923Z,22.90
2023-04-08T01:44:59.210Z,26.38
2023-04-08T01:47:01.078Z,22.50
2023-04-08T01:49:02.687Z,25.77
2023-04-08T01:51:05.246Z,24.48
2023-04-08T01:53:08.537Z,23.17
2023-04-08T01:55:10.110Z,17.35
2023-04-08T01:57:14.420Z,20.88
2023-04-08T01:59:16.993Z,18.25
2023-04-08T02:01:20.073Z,18.83
2023-04-08T02:03:22.973Z,21.40
2023-04-08T02:05:24.688Z,22.08
2023-04-08T02:07:26.086Z,22.52
2023-04-08T02:09:27.485Z,24.42
2023-04-08T02:11:29.501Z,22.58
2023-04-08T02:13:31.646Z,19.83
2023-04-08T02:15:34.917Z,22.60
2023-04-08T02:17:42.705Z,17.33
2023-04-08T02:19:44.082Z,24.08
2023-04-08T02:21:50.688Z,24.17
2023-04-08T02:23:52.140Z,24.48
2023-04-08T02:25:55.504Z,19.83
2023-04-08T02:27:57.295Z,24.10
2023-04-08T02:29:58.722Z,24.40
2023-04-08T02:32:01.501Z,24.42
2023-04-08T02:34:03.927Z,26.38
2023-04-08T02:36:06.095Z,24.83
2023-04-08T02:38:08.897Z,25.63
2023-04-08T02:40:26.676Z,24.80
2023-04-08T02:42:28.092Z,24.92
2023-04-08T02:44:29.508Z,27.38
2023-04-08T02:46:30.973Z,31.65
2023-04-08T02:48:32.352Z,30.77
2023-04-08T02:50:33.772Z,33.58
2023-04-08T02:52:35.361Z,37.78
2023-04-08T02:54:36.828Z,34.97
2023-04-08T02:56:38.311Z,33.95
2023-04-08T02:58:39.719Z,35.97
2023-04-08T03:00:41.513Z,36.65
2023-04-08T03:02:43.266Z,32.45
2023-04-08T03:04:44.834Z,31.63
2023-04-08T03:06:46.251Z,37.15
2023-04-08T03:08:47.765Z,36.72
2023-04-08T03:10:49.750Z,36.90
2023-04-08T03:12:51.276Z,37.72
2023-04-08T03:14:52.693Z,37.00
2023-04-08T03:16:54.214Z,42.97
2023-04-08T03:18:56.097Z,38.58
2023-04-08T03:20:57.657Z,36.95
2023-04-08T03:22:59.093Z,36.75
2023-04-08T03:25:00.500Z,38.13
2023-04-08T03:27:02.110Z,34.42
2023-04-08T03:29:03.510Z,32.53
2023-04-08T03:31:05.435Z,33.72
2023-04-08T03:33:08.215Z,37.35
2023-04-08T03:35:09.672Z,36.42
2023-04-08T03:37:11.055Z,41.63
2023-04-08T03:39:12.610Z,45.03
2023-04-08T03:41:14.027Z,36.63
2023-04-08T03:43:15.557Z,31.95
2023-04-08T03:45:16.987Z,33.83
2023-04-08T03:47:18.361Z,31.83
2023-04-08T03:49:19.809Z,33.47
2023-04-08T03:51:21.231Z,30.10
2023-04-08T03:53:22.671Z,27.63
2023-04-08T03:55:24.212Z,31.95
2023-04-08T03:57:25.769Z,31.85
2023-04-08T03:59:27.188Z,31.13
2023-04-08T04:01:30.075Z,32.28
2023-04-08T04:03:31.951Z,29.20
2023-04-08T04:05:33.549Z,30.13
2023-04-08T04:07:34.968Z,28.73
2023-04-08T04:09:36.399Z,29.88
2023-04-08T04:11:37.801Z,32.60
2023-04-08T04:13:39.271Z,30.35
2023-04-08T04:15:41.030Z,32.55
2023-04-08T04:17:42.528Z,35.25
2023-04-08T04:19:44.048Z,27.52
2023-04-08T04:21:45.505Z,28.60
2023-04-08T04:23:46.889Z,32.50
2023-04-08T04:25:48.295Z,28.13
2023-04-08T04:27:49.735Z,28.33
2023-04-08T04:29:51.363Z,27.17
2023-04-08T04:31:52.825Z,26.58
2023-04-08T04:33:54.381Z,25.65
2023-04-08T04:35:56.323Z,22.77
2023-04-08T04:37:57.736Z,22.05
2023-04-08T04:39:59.201Z,24.50
2023-04-08T04:42:00.847Z,31.48
2023-04-08T04:44:02.316Z,27.98
2023-04-08T04:46:07.137Z,24.60
2023-04-08T04:48:08.593Z,28.13
2023-04-08T04:50:10.266Z,25.75
2023-04-08T04:52:11.908Z,22.83
2023-04-08T04:54:13.328Z,21.15
2023-04-08T04:56:14.699Z,22.63
2023-04-08T04:58:16.256Z,20.77
2023-04-08T05:00:17.681Z,21.52
2023-04-08T05:02:19.195Z,19.52
2023-04-08T05:04:20.788Z,23.20
2023-04-08T05:06:23.501Z,24.63
2023-04-08T05:08:27.253Z,21.05
2023-04-08T05:10:29.310Z,27.60
2023-04-08T05:12:31.041Z,24.25
2023-04-08T05:14:33.446Z,24.77
2023-04-08T05:16:35.169Z,24.38
2023-04-08T05:18:36.821Z,21.45
2023-04-08T05:20:38.242Z,22.90
2023-04-08T05:22:39.678Z,26.60
2023-04-08T05:24:41.091Z,23.10
2023-04-08T05:26:42.536Z,19.48
2023-04-08T05:28:43.964Z,19.58
2023-04-08T05:30:49.300Z,19.63
2023-04-08T05:32:51.114Z,18.77
2023-04-08T05:34:52.540Z,19.23
2023-04-08T05:36:54.035Z,20.95
2023-04-08T05:38:55.770Z,19.63
2023-04-08T05:40:57.469Z,21.17
2023-04-08T05:42:59.044Z,19.85
2023-04-08T05:45:00.491Z,17.83
2023-04-08T05:47:02.462Z,16.83
2023-04-08T05:49:04.083Z,23.75
2023-04-08T05:51:05.747Z,19.95
2023-04-08T05:53:07.189Z,27.08
2023-04-08T05:55:08.717Z,22.17
2023-04-08T05:57:10.655Z,17.85
2023-04-08T05:59:12.174Z,16.80
2023-04-08T06:01:13.795Z,17.88
2023-04-08T06:03:18.120Z,16.33
2023-04-08T06:05:21.345Z,17.80
2023-04-08T06:07:22.928Z,15.75
2023-04-08T06:09:24.413Z,16.80
2023-04-08T06:11:26.207Z,16.30
2023-04-08T06:13:27.772Z,14.88
2023-04-08T06:15:29.201Z,20.45
2023-04-08T06:17:30.619Z,17.58
2023-04-08T06:19:32.074Z,14.43
2023-04-08T06:21:33.454Z,14.25
2023-04-08T06:23:35.036Z,15.90
2023-04-08T06:25:36.457Z,15.05
2023-04-08T06:27:37.907Z,19.05
2023-04-08T06:29:41.170Z,18.33
2023-04-08T06:31:44.238Z,15.80
2023-04-08T06:33:45.718Z,13.77
2023-04-08T06:35:47.213Z,18.45
2023-04-08T06:37:48.665Z,18.80
2023-04-08T06:39:50.049Z,17.52
2023-04-08T06:41:52.416Z,21.50
2023-04-08T06:43:54.112Z,18.40
2023-04-08T06:45:55.518Z,16.45
2023-04-08T06:47:57.178Z,15.60
2023-04-08T06:49:59.514Z,15.68
2023-04-08T06:52:00.952Z,15.10
2023-04-08T06:54:02.466Z,16.50
2023-04-08T06:56:04.163Z,17.95
2023-04-08T06:58:05.582Z,22.08
2023-04-08T07:00:07.773Z,16.50
2023-04-08T07:02:09.222Z,12.93
2023-04-08T07:04:10.860Z,16.30
2023-04-08T07:06:12.290Z,14.52
2023-04-08T07:08:13.722Z,13.52
2023-04-08T07:10:15.669Z,12.85
2023-04-08T07:12:17.097Z,13.93
2023-04-08T07:14:19.810Z,14.30
2023-04-08T07:16:21.643Z,16.38
2023-04-08T07:18:23.651Z,15.02
2023-04-08T07:20:26.076Z,13.15
2023-04-08T07:22:27.627Z,13.65
2023-04-08T07:24:29.246Z,15.63
2023-04-08T07:26:30.676Z,14.23
2023-04-08T07:28:32.309Z,12.00
2023-04-08T07:30:33.794Z,15.57
2023-04-08T07:32:35.397Z,11.35
2023-04-08T07:34:37.125Z,18.83
2023-04-08T07:36:39.264Z,18.92
2023-04-08T07:38:41.136Z,16.02
2023-04-08T07:40:42.575Z,19.10
2023-04-08T07:42:43.986Z,12.93
2023-04-08T07:44:46.302Z,20.10
2023-04-08T07:46:51.577Z,21.45
2023-04-08T07:48:53.208Z,14.43
2023-04-08T07:51:08.480Z,16.55
2023-04-08T07:53:12.079Z,17.02
2023-04-08T07:55:13.513Z,16.65
2023-04-08T07:57:15.297Z,15.82
2023-04-08T07:59:16.967Z,14.18
2023-04-08T08:01:19.910Z,15.90
2023-04-08T08:03:22.123Z,15.60
2023-04-08T08:05:23.840Z,15.02
2023-04-08T08:07:25.595Z,13.23
2023-04-08T08:09:27.355Z,12.68
2023-04-08T08:11:28.803Z,17.40
2023-04-08T08:13:30.290Z,13.50
2023-04-08T08:15:31.927Z,9.95
2023-04-08T08:17:33.918Z,10.55
2023-04-08T08:19:35.525Z,12.57
2023-04-08T08:21:37.525Z,10.07
2023-04-08T08:23:38.963Z,11.55
2023-04-08T08:25:40.360Z,15.55
2023-04-08T08:27:42.395Z,16.42
2023-04-08T08:29:43.867Z,12.88
2023-04-08T08:31:45.317Z,12.32
2023-04-08T08:33:47.364Z,14.02
2023-04-08T08:35:48.777Z,10.52
2023-04-08T08:37:50.648Z,10.85
2023-04-08T08:39:52.308Z,11.95
2023-04-08T08:41:53.833Z,14.95
2023-04-08T08:43:56.164Z,19.30
2023-04-08T08:45:57.658Z,12.10
2023-04-08T08:47:59.092Z,13.43
2023-04-08T08:50:00.911Z,11.85
2023-04-08T08:52:02.316Z,14.18
2023-04-08T08:54:04.514Z,13.07
2023-04-08T08:56:17.743Z,16.60
2023-04-08T08:58:20.264Z,14.40
2023-04-08T09:00:33.269Z,13.63
2023-04-08T09:02:36.122Z,13.75
2023-04-08T09:04:37.834Z,14.30
2023-04-08T09:06:39.666Z,18.30
2023-04-08T09:08:42.212Z,13.32
2023-04-08T09:10:43.601Z,16.40
2023-04-08T09:12:56.000Z,9.73
2023-04-08T09:15:04.779Z,13.68
2023-04-08T09:17:06.491Z,14.55
2023-04-08T09:19:09.408Z,12.15
2023-04-08T09:21:11.876Z,12.07
2023-04-08T09:23:13.272Z,11.82
2023-04-08T09:25:27.542Z,10.18
2023-04-08T09:27:35.669Z,10.25
2023-04-08T09:29:39.781Z,10.57
2023-04-08T09:31:41.761Z,12.00
2023-04-08T09:33:44.367Z,13.27
2023-04-08T09:35:46.798Z,10.82
2023-04-08T09:37:49.044Z,12.55
2023-04-08T09:39:50.804Z,10.77
2023-04-08T09:41:52.950Z,12.27
2023-04-08T09:43:55.788Z,12.13
2023-04-08T09:45:58.055Z,9.93
2023-04-08T09:48:02.612Z,11.20
2023-04-08T09:50:06.769Z,11.55
2023-04-08T09:52:11.767Z,11.65
2023-04-08T09:54:14.489Z,12.55
2023-04-08T09:56:17.283Z,12.43
2023-04-08T09:58:22.624Z,10.20
2023-04-08T10:00:32.390Z,15.15
2023-04-08T10:02:38.572Z,12.13
2023-04-08T10:04:42.240Z,13.40
2023-04-08T10:06:43.866Z,12.10
2023-04-08T10:08:45.796Z,12.38
2023-04-08T10:10:48.051Z,12.75
2023-04-08T10:12:49.863Z,13.52
2023-04-08T10:15:09.935Z,11.73
2023-04-08T10:17:27.788Z,12.25
2023-04-08T10:19:41.935Z,11.38
2023-04-08T10:21:48.062Z,12.18
2023-04-08T10:23:57.713Z,11.63
2023-04-08T10:25:59.175Z,11.82
2023-04-08T10:28:01.964Z,12.30
2023-04-08T10:30:03.480Z,14.02
2023-04-08T10:32:05.020Z,12.00
2023-04-08T10:34:33.012Z,15.00
2023-04-08T10:36:34.499Z,12.00
2023-04-08T10:38:35.950Z,13.88
2023-04-08T10:40:39.127Z,13.90
2023-04-08T10:42:40.788Z,13.43
2023-04-08T10:44:44.808Z,13.35
2023-04-08T10:46:47.060Z,13.55
2023-04-08T10:48:59.660Z,20.30
2023-04-08T10:51:01.935Z,14.13
2023-04-08T10:53:03.574Z,13.02
2023-04-08T10:55:05.596Z,14.20
2023-04-08T10:57:07.505Z,11.50
2023-04-08T10:59:08.916Z,13.77
2023-04-08T11:01:10.354Z,11.90
2023-04-08T11:03:13.704Z,18.75
2023-04-08T11:05:17.382Z,15.63
2023-04-08T11:07:20.322Z,15.23
2023-04-08T11:09:21.786Z,14.60
2023-04-08T11:11:29.483Z,14.45
2023-04-08T11:13:31.167Z,16.77
2023-04-08T11:15:33.524Z,14.13
2023-04-08T11:17:35.455Z,19.15
2023-04-08T11:19:37.208Z,13.80
2023-04-08T11:21:38.954Z,22.60
2023-04-08T11:23:42.139Z,15.85
2023-04-08T11:25:44.691Z,17.92
2023-04-08T11:27:47.624Z,26.02
2023-04-08T11:29:49.462Z,14.63
2023-04-08T11:31:51.492Z,23.30
2023-04-08T11:33:54.470Z,16.40
2023-04-08T11:35:56.640Z,16.90
2023-04-08T11:37:59.046Z,17.83
2023-04-08T11:40:00.570Z,14.60
2023-04-08T11:42:01.993Z,19.85
2023-04-08T11:44:03.459Z,16.35
2023-04-08T11:46:11.562Z,17.90
2023-04-08T11:48:14.278Z,17.27
2023-04-08T11:50:25.938Z,14.70
2023-04-08T11:52:45.845Z,16.23
2023-04-08T11:56:48.637Z,15.90
2023-04-08T11:58:50.585Z,17.10
2023-04-08T12:00:52.037Z,17.85
2023-04-08T12:02:53.605Z,20.33
2023-04-08T12:04:55.134Z,15.38
2023-04-08T12:06:58.363Z,21.73
2023-04-08T12:09:00.198Z,15.48
2023-04-08T12:11:16.583Z,17.50
2023-04-08T12:13:20.480Z,20.73
2023-04-08T12:15:22.078Z,16.63
2023-04-08T12:17:25.925Z,16.58
2023-04-08T12:19:27.812Z,17.38
2023-04-08T12:21:29.246Z,14.73
2023-04-08T12:23:30.643Z,13.70
2023-04-08T12:25:32.064Z,17.60
2023-04-08T12:27:34.087Z,14.80
2023-04-08T12:29:35.573Z,19.25
2023-04-08T12:31:37.294Z,13.20
2023-04-08T12:33:38.700Z,14.15
2023-04-08T12:35:40.110Z,22.45
2023-04-08T12:37:44.176Z,15.60
2023-04-08T12:39:45.957Z,24.23
2023-04-08T12:41:47.351Z,22.48
2023-04-08T12:43:48.741Z,39.92
2023-04-08T12:45:50.299Z,14.95
2023-04-08T12:47:52.161Z,20.80
2023-04-08T12:49:53.578Z,15.40
2023-04-08T12:51:55.113Z,22.10
2023-04-08T12:53:56.635Z,17.05
2023-04-08T12:55:58.341Z,15.57
2023-04-08T12:58:00.094Z,17.15
2023-04-08T13:00:01.532Z,15.63
2023-04-08T13:02:03.013Z,15.88
2023-04-08T13:04:04.503Z,17.90
2023-04-08T13:06:05.972Z,19.13
2023-04-08T13:08:07.739Z,18.25
2023-04-08T13:10:09.316Z,14.27
2023-04-08T13:12:12.207Z,22.88
2023-04-08T13:14:13.781Z,15.27
2023-04-08T13:16:15.520Z,13.63
2023-04-08T13:18:17.216Z,19.05
2023-04-08T13:20:18.688Z,16.98
2023-04-08T13:22:20.344Z,14.38
2023-04-08T13:24:21.740Z,15.57
2023-04-08T13:26:23.177Z,16.20
2023-04-08T13:28:25.070Z,15.93
2023-04-08T13:30:26.498Z,13.95
2023-04-08T13:32:27.956Z,11.73
2023-04-08T13:34:29.488Z,23.65
2023-04-08T13:36:31.598Z,16.55
2023-04-08T13:38:33.291Z,17.48
2023-04-08T13:40:34.677Z,20.63
2023-04-08T13:42:36.154Z,15.82
2023-04-08T13:44:37.702Z,14.48
2023-04-08T13:46:39.702Z,26.05
2023-04-08T13:48:42.160Z,18.58
2023-04-08T13:50:43.765Z,19.42
2023-04-08T13:52:45.190Z,21.20
2023-04-08T13:54:46.902Z,22.42
2023-04-08T13:56:48.309Z,18.75
2023-04-08T13:58:57.092Z,15.23
2023-04-08T14:01:06.833Z,20.92
2023-04-08T14:03:08.368Z,20.75
2023-04-08T14:05:09.962Z,19.35
2023-04-08T14:07:14.662Z,16.60
2023-04-08T14:09:16.381Z,19.23
2023-04-08T14:11:17.776Z,20.42
2023-04-08T14:13:19.489Z,20.95
2023-04-08T14:15:21.025Z,20.02
2023-04-08T14:17:22.467Z,23.02
2023-04-08T14:19:23.925Z,22.92
2023-04-08T14:21:25.982Z,24.27
2023-04-08T14:23:27.532Z,28.75
2023-04-08T14:25:29.082Z,27.88
2023-04-08T14:27:30.506Z,27.00
2023-04-08T14:29:31.929Z,21.67
2023-04-08T14:31:34.264Z,21.85
2023-04-08T14:33:36.198Z,22.30
2023-04-08T14:35:37.866Z,19.45
2023-04-08T14:37:39.388Z,20.50
2023-04-08T14:39:40.958Z,17.73
2023-04-08T14:41:42.416Z,22.27
2023-04-08T14:43:44.066Z,20.15
2023-04-08T14:45:45.649Z,19.48
2023-04-08T14:47:47.318Z,20.65
2023-04-08T14:49:48.862Z,19.40
2023-04-08T14:51:52.614Z,16.33
2023-04-08T14:53:57.620Z,20.05
2023-04-08T14:55:59.232Z,20.58
2023-04-08T14:58:01.327Z,31.63
2023-04-08T15:00:02.906Z,20.98
2023-04-08T15:02:04.435Z,15.43
2023-04-08T15:04:07.615Z,16.45
2023-04-08T15:06:09.078Z,16.52
2023-04-08T15:08:10.934Z,14.10
2023-04-08T15:10:12.364Z,14.80
2023-04-08T15:12:13.893Z,18.38
2023-04-08T15:14:19.760Z,12.75
2023-04-08T15:16:21.560Z,20.00
2023-04-08T15:18:22.986Z,29.30
2023-04-08T15:20:24.487Z,30.35
2023-04-08T15:22:25.977Z,19.60
2023-04-08T15:24:27.368Z,20.88
2023-04-08T15:26:28.861Z,24.38
2023-04-08T15:28:30.252Z,26.00
2023-04-08T15:30:35.379Z,26.33
2023-04-08T15:32:37.242Z,29.70
2023-04-08T15:34:38.681Z,30.85
2023-04-08T15:36:40.332Z,31.17
2023-04-08T15:38:41.858Z,46.20
2023-04-08T15:40:44.699Z,65.28
2023-04-08T15:42:46.992Z,79.57
2023-04-08T15:44:48.557Z,81.85
2023-04-08T15:46:50.078Z,99.60
2023-04-08T15:48:51.711Z,95.50
2023-04-08T15:50:53.594Z,105.50
2023-04-08T15:52:55.119Z,107.70
2023-04-08T15:54:56.605Z,109.70
2023-04-08T15:56:58.395Z,94.20
2023-04-08T15:58:59.813Z,105.88
2023-04-08T16:01:01.270Z,82.93
2023-04-08T16:03:02.900Z,93.07
2023-04-08T16:05:04.614Z,77.35
2023-04-08T16:07:06.937Z,45.70
2023-04-08T16:09:08.911Z,35.42
2023-04-08T16:11:10.399Z,33.83
2023-04-08T16:13:11.777Z,38.75
2023-04-08T16:15:13.228Z,33.65
2023-04-08T16:17:14.791Z,31.63
2023-04-08T16:19:16.177Z,139.73
2023-04-08T16:21:18.617Z,63.63
2023-04-08T16:23:20.277Z,36.35
2023-04-08T16:25:21.829Z,38.08
2023-04-08T16:27:23.247Z,50.22
2023-04-08T16:29:24.724Z,57.05
2023-04-08T16:31:26.152Z,62.35
2023-04-08T16:33:30.100Z,54.67
2023-04-08T16:35:31.648Z,34.42
2023-04-08T16:37:33.395Z,38.72
2023-04-08T16:39:35.036Z,42.28
2023-04-08T16:41:36.773Z,43.28
2023-04-08T16:43:38.356Z,40.88
2023-04-08T16:45:41.596Z,58.55
2023-04-08T16:47:43.430Z,111.22
2023-04-08T16:49:44.857Z,104.03
2023-04-08T16:51:46.508Z,143.07
2023-04-08T16:53:47.846Z,144.95
2023-04-08T16:55:49.276Z,138.63
2023-04-08T16:57:50.709Z,135.70
2023-04-08T16:59:52.424Z,116.05
2023-04-08T17:01:53.894Z,129.93
2023-04-08T17:03:55.573Z,134.75
2023-04-08T17:06:05.927Z,141.45
2023-04-08T17:10:08.917Z,185.02
2023-04-08T17:12:11.017Z,143.05
2023-04-08T17:14:12.436Z,113.00
2023-04-08T17:16:14.742Z,101.65
2023-04-08T17:18:16.554Z,82.25
2023-04-08T17:20:17.986Z,88.07
2023-04-08T17:22:19.382Z,85.57
2023-04-08T17:24:20.858Z,85.32
2023-04-08T17:26:23.484Z,114.05
2023-04-08T17:28:24.960Z,118.88
2023-04-08T17:30:26.442Z,138.93
2023-04-08T17:32:27.848Z,162.02
2023-04-08T17:34:31.256Z,177.70
2023-04-08T17:36:32.834Z,178.25
2023-04-08T17:38:36.034Z,145.98
2023-04-08T17:40:38.554Z,92.72
2023-04-08T17:42:39.964Z,80.60
2023-04-08T17:44:42.594Z,70.20
2023-04-08T17:46:44.051Z,91.60
2023-04-08T17:48:46.420Z,102.50
2023-04-08T17:50:47.864Z,125.50
2023-04-08T17:52:49.299Z,93.78
2023-04-08T17:54:50.767Z,95.68
2023-04-08T17:56:52.159Z,100.55
2023-04-08T17:58:53.690Z,107.72
2023-04-08T18:00:55.393Z,124.90
2023-04-08T18:02:57.318Z,93.63
2023-04-08T18:05:00.754Z,106.13
2023-04-08T18:07:04.560Z,125.28
2023-04-08T18:09:05.971Z,95.25
2023-04-08T18:11:07.460Z,112.40
2023-04-08T18:13:11.649Z,115.60
2023-04-08T18:15:13.546Z,102.03
2023-04-08T18:17:15.037Z,99.93
2023-04-08T18:19:16.493Z,93.60
2023-04-08T18:21:22.166Z,86.30
2023-04-08T18:23:23.751Z,89.05
2023-04-08T18:25:25.179Z,89.20
2023-04-08T18:27:26.547Z,105.68
2023-04-08T18:29:27.972Z,97.70
2023-04-08T18:31:29.582Z,97.57
2023-04-08T18:33:31.238Z,112.07
2023-04-08T18:35:32.646Z,109.05
2023-04-08T18:37:34.650Z,117.80
2023-04-08T18:39:39.259Z,130.60
2023-04-08T18:41:40.660Z,128.73
2023-04-08T18:43:42.190Z,102.55
2023-04-08T18:45:43.613Z,107.15
2023-04-08T18:47:45.056Z,109.03
2023-04-08T18:49:46.482Z,108.43
2023-04-08T18:51:58.964Z,114.20
2023-04-08T18:54:03.684Z,97.93
2023-04-08T18:56:05.742Z,85.70
2023-04-08T18:58:07.453Z,79.97
2023-04-08T19:00:09.365Z,77.70
2023-04-08T19:02:11.129Z,75.38
2023-04-08T19:04:13.149Z,70.78
2023-04-08T19:06:17.318Z,86.80
2023-04-08T19:08:18.732Z,84.68
2023-04-08T19:10:21.685Z,108.40
2023-04-08T19:12:23.126Z,140.50
2023-04-08T19:14:25.518Z,126.82
2023-04-08T19:16:27.050Z,137.13
2023-04-08T19:18:28.692Z,136.13
2023-04-08T19:20:30.187Z,140.20
2023-04-08T19:22:32.070Z,115.50
2023-04-08T19:24:33.682Z,144.10
2023-04-08T19:26:35.452Z,181.90
2023-04-08T19:28:36.879Z,219.68
2023-04-08T19:30:38.631Z,219.70
2023-04-08T19:32:40.619Z,215.68
2023-04-08T19:34:42.404Z,211.95
2023-04-08T19:36:43.991Z,237.35
2023-04-08T19:38:45.621Z,238.63
2023-04-08T19:40:48.117Z,199.65
2023-04-08T19:42:49.498Z,156.13
2023-04-08T19:44:51.615Z,128.38
2023-04-08T19:46:53.161Z,147.80
2023-04-08T19:48:58.104Z,152.23
2023-04-08T19:51:00.085Z,126.18
2023-04-08T19:53:01.477Z,116.50
2023-04-08T19:55:03.567Z,102.82
2023-04-08T19:57:06.414Z,92.05
2023-04-08T19:59:07.937Z,87.03
2023-04-08T20:01:10.082Z,89.80
2023-04-08T20:03:11.706Z,86.32
2023-04-08T20:05:16.176Z,80.15
2023-04-08T20:07:17.630Z,73.57
2023-04-08T20:09:19.010Z,61.65
2023-04-08T20:11:20.619Z,56.65
2023-04-08T20:13:22.062Z,52.97
2023-04-08T20:15:24.995Z,55.03
2023-04-08T20:17:30.567Z,64.53
2023-04-08T20:19:32.014Z,54.95
2023-04-08T20:21:33.908Z,63.15
2023-04-08T20:23:36.281Z,62.30
2023-04-08T20:25:37.696Z,89.63
2023-04-08T20:27:39.151Z,85.22
2023-04-08T20:29:42.805Z,71.97
2023-04-08T20:31:44.914Z,78.95
2023-04-08T20:33:46.448Z,79.15
2023-04-08T20:35:50.443Z,187.57
2023-04-08T20:37:51.938Z,147.07
2023-04-08T20:39:54.102Z,142.23
2023-04-08T20:41:57.112Z,113.93
2023-04-08T20:43:58.521Z,146.93
2023-04-08T20:46:00.163Z,126.63
2023-04-08T20:48:01.743Z,143.07
2023-04-08T20:50:03.643Z,110.15
2023-04-08T20:52:05.108Z,110.80
2023-04-08T20:54:06.554Z,109.68
2023-04-08T20:56:07.985Z,96.65
2023-04-08T20:58:09.444Z,95.30
2023-04-08T21:00:11.209Z,93.95
2023-04-08T21:02:12.764Z,92.97
2023-04-08T21:04:14.161Z,91.35
2023-04-08T21:06:16.798Z,80.50
2023-04-08T21:08:18.266Z,77.40
2023-04-08T21:10:19.769Z,87.97
2023-04-08T21:12:21.170Z,100.13
2023-04-08T21:14:22.602Z,109.03
2023-04-08T21:16:24.075Z,112.75
2023-04-08T21:18:25.667Z,117.28
2023-04-08T21:20:27.123Z,104.88
2023-04-08T21:22:28.969Z,101.28
2023-04-08T21:24:30.726Z,102.70
2023-04-08T21:26:32.224Z,102.75
2023-04-08T21:28:33.640Z,95.82
2023-04-08T21:30:35.087Z,79.15
2023-04-08T21:32:36.509Z,78.55
2023-04-08T21:34:37.895Z,84.25
2023-04-08T21:36:39.399Z,83.93
2023-04-08T21:38:41.513Z,78.28
2023-04-08T21:40:42.941Z,96.68
2023-04-08T21:42:44.485Z,90.63
2023-04-08T21:44:45.900Z,94.35
2023-04-08T21:46:48.761Z,75.53
2023-04-08T21:48:50.314Z,65.75
2023-04-08T21:50:51.900Z,68.28
2023-04-08T21:52:53.291Z,75.07
2023-04-08T21:54:54.750Z,75.93
2023-04-08T21:56:56.910Z,75.13
2023-04-08T21:58:58.405Z,67.65
2023-04-08T22:00:59.923Z,73.47
2023-04-08T22:03:01.787Z,78.40
2023-04-08T22:05:03.912Z,75.97
2023-04-08T22:07:05.542Z,76.15
2023-04-08T22:09:07.276Z,71.18
2023-04-08T22:11:12.001Z,74.75
2023-04-08T22:13:14.359Z,70.75
2023-04-08T22:15:15.838Z,70.03
2023-04-08T22:17:17.223Z,98.30
2023-04-08T22:19:19.163Z,111.90
2023-04-08T22:21:21.031Z,77.55
2023-04-08T22:23:22.448Z,84.00
2023-04-08T22:25:23.894Z,66.13
2023-04-08T22:27:25.407Z,61.47
2023-04-08T22:29:26.810Z,62.65
2023-04-08T22:31:28.221Z,70.47
2023-04-08T22:33:29.618Z,66.97
2023-04-08T22:35:31.157Z,69.35
2023-04-08T22:37:32.624Z,76.78
2023-04-08T22:39:34.017Z,102.22
2023-04-08T22:41:35.468Z,119.47
2023-04-08T22:43:36.920Z,113.78
2023-04-08T22:45:38.341Z,96.97
2023-04-08T22:47:39.797Z,83.85
2023-04-08T22:49:42.751Z,87.82
2023-04-08T22:51:44.279Z,112.85
2023-04-08T22:53:45.653Z,102.78
2023-04-08T22:55:47.078Z,93.75
2023-04-08T22:57:48.543Z,86.47
2023-04-08T22:59:49.941Z,84.53
2023-04-08T23:01:51.491Z,82.13
2023-04-08T23:03:52.937Z,96.55
2023-04-08T23:05:54.335Z,108.18
2023-04-08T23:07:55.918Z,99.22
2023-04-08T23:09:57.342Z,106.90
2023-04-08T23:11:58.756Z,102.82
2023-04-08T23:14:00.388Z,115.60
2023-04-08T23:16:02.393Z,110.95
2023-04-08T23:18:03.830Z,137.90
2023-04-08T23:20:05.793Z,129.00
2023-04-08T23:22:07.163Z,130.35
2023-04-08T23:24:08.604Z,133.27
2023-04-08T23:26:19.513Z,117.72
2023-04-08T23:28:21.100Z,133.73
2023-04-08T23:30:22.547Z,148.40
2023-04-08T23:32:24.008Z,143.90
2023-04-08T23:34:25.534Z,140.50
2023-04-08T23:36:27.648Z,148.82
2023-04-08T23:38:29.080Z,149.13
2023-04-08T23:40:30.522Z,165.77
2023-04-08T23:42:31.926Z,152.07
2023-04-08T23:44:33.353Z,170.32
2023-04-08T23:46:34.868Z,157.65
2023-04-08T23:48:36.285Z,152.13
2023-04-08T23:50:37.695Z,146.68
2023-04-08T23:52:39.155Z,141.43
2023-04-08T23:54:40.632Z,145.80
2023-04-08T23:56:42.034Z,153.57
2023-04-08T23:58:43.436Z,151.43
